Atqasuk, Alaska
Current Conditions -  °F | °C
As of 8:56 AM on Sunday 21 Dec 2014 (Local Time) from PATQ Reporting Station
Light Snow Light Snow  
Wind Chill: -17°   Ceiling: 2500
Heat Index:   Visibility: 7mi
Dew Point: -3°   Wind: 14mph
Humidity: 83%   Direction: 70°ENE
Pressure: 29.63"   Gusts: NA
Location:  70.47°N, 157.4°W
Report Text: PATQ 211756Z AUTO 07012KT 7SM -SN OVC025 M17/M19 A2963 RMK AO2 TSNO 53002 60000 T11721194 11166 21172 P0000 SLP042 $
Loading
Personal Weather Stations






























Interactive Weather Map New forecast layout! Learn more

10-Day Weather Forecast

Advertisements
Track Severe Weather on mobile